Hickory Grove, Mississippi
Current Conditions -  °F | °C
As of 2:15 AM on Friday 28 Nov 2014 (Local Time) from KSTF Reporting Station
NA  
Wind Chill: 27°   Ceiling: NA
Heat Index: 27°   Visibility: NA
Dew Point: 27°   Wind: 0mph
Humidity: 100%   Direction: NA
Pressure: 30.47"   Gusts: NA
Location:  33.4256°N, 88.8438°W
Report Text: KSTF 280815Z AUTO 00000KT M03/M03 A3047 RMK AO2 PWINO
Loading
Personal Weather Stations






























Interactive Weather Map New forecast layout! Learn more

10-Day Weather Forecast

Advertisements
Track Severe Weather on mobile